Voorneborg — PCGI — position and weather

sailwx.info

Track history (hours):
 
Tides and Currents Weather Stations Pressure Air Temp Water Temp Dewpoint Dewpoint Depression Visibility Wind Speed Wind Dir Waves Ship Positions

Voorneborg

Last reported at 2018-Jun-15 11:31 UTC. Time now 2018-Jun-19 06:58 UTC.
Position N 36°28' E 014°55'.

Length 132 m; draft 7.1 m.

Type: Cargo ship. MMSI: 245491000.

Date/timePositionNaut miles runAvg speedWind from/ knotsBaromVisibWave heightAir tempDewpointWater temp
2018-Jun-15 11:31N 36°28' E 014°55'012.7
2018-Jun-15 11:30N 36°28' E 014°55'612.3
2018-Jun-15 11:00N 36°28' E 014°47'612.5
2018-Jun-15 10:30N 36°29' E 014°40'612.2
2018-Jun-15 10:00N 36°30' E 014°32'612.1
2018-Jun-15 09:30N 36°31' E 014°25'612.5
2018-Jun-15 08:59N 36°33' E 014°17'612.4
2018-Jun-15 08:30N 36°35' E 014°10'611.9
2018-Jun-15 08:00N 36°36' E 014°03'612.0
2018-Jun-15 07:30N 36°38' E 013°56'611.9
2018-Jun-15 07:00N 36°40' E 013°49'612.1
2018-Jun-15 06:30N 36°42' E 013°42'612.1
2018-Jun-15 06:00N 36°44' E 013°35'  
2018-Jun-13 01:01N 36°43' E 000°13'013.0
2018-Jun-13 01:00N 36°43' E 000°13'3312.7
2018-Jun-12 22:24N 36°37' W 000°28'1012.3
2018-Jun-12 21:35N 36°35' W 000°40'112.6
2018-Jun-12 21:30N 36°35' W 000°41'21513.2
2018-Jun-12 05:15N 36°02' W 005°05'415.2
2018-Jun-12 04:59N 36°02' W 005°10'715.1
2018-Jun-12 04:30N 36°03' W 005°19'611.5
2018-Jun-12 04:00N 36°06' W 005°25'0 0.3
2018-Jun-12 03:27N 36°06' W 005°25'0 0.0
2018-Jun-12 02:54N 36°06' W 005°25'0 0.1
2018-Jun-12 02:27N 36°06' W 005°25'0 0.1
2018-Jun-12 02:00N 36°06' W 005°25'0 0.0
2018-Jun-12 01:26N 36°06' W 005°25'0 0.1
2018-Jun-12 00:59N 36°06' W 005°25'0 0.1
2018-Jun-12 00:26N 36°06' W 005°25'0 0.0
2018-Jun-11 23:59N 36°06' W 005°25'0 0.1
2018-Jun-11 23:25N 36°06' W 005°25'0 0.0
2018-Jun-11 22:58N 36°06' W 005°25'0 0.3
2018-Jun-11 22:28N 36°06' W 005°25'0 0.1
2018-Jun-11 21:58N 36°06' W 005°25'0 0.1
2018-Jun-11 21:28N 36°06' W 005°25'0 0.6
2018-Jun-11 21:00N 36°05' W 005°25'3 6.4
2018-Jun-11 20:30N 36°05' W 005°21'2 3.3
2018-Jun-11 20:00N 36°03' W 005°20'611.4
2018-Jun-11 19:30N 35°59' W 005°25'26410.8
2018-Jun-10 18:58N 38°25' W 010°01'612.4
2018-Jun-10 18:30N 38°30' W 010°03'712.3
2018-Jun-10 17:54N 38°37' W 010°05'612.3
2018-Jun-10 17:26N 38°43' W 010°06'512.6
2018-Jun-10 17:00N 38°49' W 010°07'612.6
2018-Jun-10 16:30N 38°55' W 010°06'612.3
2018-Jun-10 16:01N 39°01' W 010°06'612.5
2018-Jun-10 15:30N 39°07' W 010°06'612.8
2018-Jun-10 15:00N 39°14' W 010°07'  
2018-Jun-08 03:11N 49°48' W 003°26'511.6
2018-Jun-08 02:44N 49°51' W 003°20'311.5
2018-Jun-08 02:31N 49°52' W 003°16'611.6
2018-Jun-08 02:00N 49°55' W 003°08'611.5
2018-Jun-08 01:30N 49°58' W 003°01'611.4
2018-Jun-08 01:00N 50°00' W 002°52'3512.2
2018-Jun-07 22:10N 50°10' W 002°01'213.3
2018-Jun-07 22:00N 50°10' W 001°57'813.7
2018-Jun-07 21:26N 50°12' W 001°46'3214.2
2018-Jun-07 19:11N 50°21' W 000°57'613.9
2018-Jun-07 18:45N 50°23' W 000°48'413.5
2018-Jun-07 18:29N 50°24' W 000°43'612.8
2018-Jun-07 18:01N 50°26' W 000°34'612.5
2018-Jun-07 17:30N 50°27' W 000°24'1811.8
2018-Jun-07 16:01N 50°32' E 000°02'411.4
2018-Jun-07 15:38N 50°33' E 000°09'211.3
2018-Jun-07 15:27N 50°34' E 000°12'511.2
2018-Jun-07 15:00N 50°35' E 000°20'611.2
2018-Jun-07 14:30N 50°37' E 000°28'611.3
2018-Jun-07 14:00N 50°39' E 000°36'612.0
2018-Jun-07 13:30N 50°43' E 000°44'612.6
2018-Jun-07 13:01N 50°46' E 000°52'2213.6
2018-Jun-07 11:22N 51°00' E 001°19'514.0
2018-Jun-07 11:00N 51°04' E 001°26'713.4
2018-Jun-07 10:30N 51°08' E 001°34'612.6
2018-Jun-07 10:01N 51°12' E 001°42'612.0
2018-Jun-07 09:31N 51°16' E 001°48'611.7
2018-Jun-07 09:00N 51°21' E 001°54'611.1
2018-Jun-07 08:30N 51°25' E 001°59'611.6
2018-Jun-07 08:00N 51°23' E 002°08'611.4
2018-Jun-07 07:30N 51°21' E 002°17'610.7
2018-Jun-07 06:58N 51°22' E 002°25'510.6
2018-Jun-07 06:30N 51°23' E 002°33'610.7
2018-Jun-07 05:58N 51°23' E 002°42'4 7.7
2018-Jun-07 05:30N 51°22' E 002°48'511.0
2018-Jun-07 05:00N 51°23' E 002°56'610.8
2018-Jun-07 04:30N 51°24' E 003°05'510.7
2018-Jun-07 04:00N 51°25' E 003°14'510.7
2018-Jun-07 03:30N 51°25' E 003°22'611.0
2018-Jun-07 03:00N 51°25' E 003°31'4 8.8
2018-Jun-07 02:30N 51°25' E 003°38'511.0
2018-Jun-07 02:01N 51°22' E 003°45'3 6.6
2018-Jun-07 01:31N 51°20' E 003°49'0 0.1
2018-Jun-07 01:00N 51°20' E 003°49'1 2.5
2018-Jun-07 00:30N 51°19' E 003°50'3 5.7
2018-Jun-07 00:00N 51°16' E 003°50'3 5.7
2018-Jun-06 23:31N 51°13' E 003°48'2 4.5
2018-Jun-06 22:58N 51°11' E 003°48'0 0.0
2018-Jun-06 22:30N 51°11' E 003°48'0 0.0
2018-Jun-06 22:00N 51°11' E 003°48'0 0.0
2018-Jun-06 21:30N 51°11' E 003°48'0 0.0
2018-Jun-06 21:00N 51°11' E 003°48'0 0.0
2018-Jun-06 20:30N 51°11' E 003°48'0 0.0
2018-Jun-06 19:59N 51°11' E 003°48'0 0.0
2018-Jun-06 19:23N 51°11' E 003°48'0 0.0
2018-Jun-06 18:59N 51°11' E 003°48'0 0.0
2018-Jun-06 18:29N 51°11' E 003°48'0 0.0
2018-Jun-06 17:58N 51°11' E 003°48'0 0.0
2018-Jun-06 17:22N 51°11' E 003°48'0 0.0
2018-Jun-06 16:58N 51°11' E 003°48'0 0.0
2018-Jun-06 16:25N 51°11' E 003°48'0 0.0
2018-Jun-06 15:58N 51°11' E 003°48'0 0.0
2018-Jun-06 15:30N 51°11' E 003°48'0 0.0
2018-Jun-06 15:00N 51°11' E 003°48'0 0.0
2018-Jun-06 14:30N 51°11' E 003°48'0 0.0
2018-Jun-06 14:00N 51°11' E 003°48'0 0.0
2018-Jun-06 13:29N 51°11' E 003°48'0 0.0
2018-Jun-06 12:59N 51°11' E 003°48'0 0.0
2018-Jun-06 12:29N 51°11' E 003°48'0 0.0
2018-Jun-06 11:56N 51°11' E 003°48'0 0.0
2018-Jun-06 11:29N 51°11' E 003°48'0 0.0
2018-Jun-06 10:58N 51°11' E 003°48'0 0.0
2018-Jun-06 10:28N 51°11' E 003°48'0 0.0
2018-Jun-06 09:58N 51°11' E 003°48'0 0.0
2018-Jun-06 09:28N 51°11' E 003°48'0 0.0
2018-Jun-06 08:58N 51°11' E 003°48'0 0.1
2018-Jun-06 08:30N 51°11' E 003°48'0 0.1
2018-Jun-06 08:00N 51°11' E 003°48'0 0.0
2018-Jun-06 07:30N 51°11' E 003°48'0 0.0
2018-Jun-06 07:00N 51°11' E 003°48'0 0.0
2018-Jun-06 06:29N 51°11' E 003°48'0 0.0
2018-Jun-06 05:59N 51°11' E 003°48'0 0.0
2018-Jun-06 05:26N 51°11' E 003°48'0 0.0
2018-Jun-06 04:59N 51°11' E 003°48'0 0.0
2018-Jun-06 04:29N 51°11' E 003°48'0 0.0
2018-Jun-06 03:58N 51°11' E 003°48'0 0.0
2018-Jun-06 03:28N 51°11' E 003°48'0 0.0
2018-Jun-06 02:58N 51°11' E 003°48'0 0.0
2018-Jun-06 02:28N 51°11' E 003°48'0 0.0
2018-Jun-06 02:00N 51°11' E 003°48'0 0.0
2018-Jun-06 01:30N 51°11' E 003°48'0 0.0
2018-Jun-06 01:00N 51°11' E 003°48'0 0.0
2018-Jun-06 00:30N 51°11' E 003°48'0 0.0
2018-Jun-06 00:00N 51°11' E 003°48'0 0.0
2018-Jun-05 23:29N 51°11' E 003°48'0 0.0
2018-Jun-05 22:59N 51°11' E 003°48'0 0.0
2018-Jun-05 22:29N 51°11' E 003°48'0 0.0
2018-Jun-05 21:59N 51°11' E 003°48'0 0.0
2018-Jun-05 21:26N 51°11' E 003°48'0 0.0
2018-Jun-05 20:58N 51°11' E 003°48'0 0.0
2018-Jun-05 20:28N 51°11' E 003°48'0 0.0
2018-Jun-05 19:58N 51°11' E 003°48'0 0.0
2018-Jun-05 19:28N 51°11' E 003°48'0 0.0
2018-Jun-05 19:01N 51°11' E 003°48'0 0.0
2018-Jun-05 18:30N 51°11' E 003°48'0 0.0
2018-Jun-05 18:00N 51°11' E 003°48'0 0.0
2018-Jun-05 17:30N 51°11' E 003°48'0 0.0
2018-Jun-05 17:00N 51°11' E 003°48'0 0.0
2018-Jun-05 16:23N 51°11' E 003°48'0 0.0
2018-Jun-05 16:00N 51°11' E 003°48'0 0.0
2018-Jun-05 15:29N 51°11' E 003°48'0 0.0
2018-Jun-05 14:59N 51°11' E 003°48'0 0.0
2018-Jun-05 14:29N 51°11' E 003°48'0 0.0
2018-Jun-05 13:58N 51°11' E 003°48'0 0.0
2018-Jun-05 13:28N 51°11' E 003°48'0 0.0
2018-Jun-05 12:58N 51°11' E 003°48'0 0.0
2018-Jun-05 12:28N 51°11' E 003°48'0 0.0
2018-Jun-05 12:00N 51°11' E 003°48'  
Track history (hours):
 
Tides and Currents Weather Stations Pressure Air Temp Water Temp Dewpoint Dewpoint Depression Visibility Wind Speed Wind Dir Waves Ship Positions

Voorneborg

Last reported at 2018-Jun-15 11:31 UTC. Time now 2018-Jun-19 06:58 UTC.
Position N 36°28' E 014°55'.

Length 132 m; draft 7.1 m.

Type: Cargo ship. MMSI: 245491000.

Date/timePositionNaut miles runAvg speedWind from/ knotsBaromVisibWave heightAir tempDewpointWater temp
2018-Jun-15 11:31N 36°28' E 014°55'012.7
2018-Jun-15 11:30N 36°28' E 014°55'612.3
2018-Jun-15 11:00N 36°28' E 014°47'612.5
2018-Jun-15 10:30N 36°29' E 014°40'612.2
2018-Jun-15 10:00N 36°30' E 014°32'612.1
2018-Jun-15 09:30N 36°31' E 014°25'612.5
2018-Jun-15 08:59N 36°33' E 014°17'612.4
2018-Jun-15 08:30N 36°35' E 014°10'611.9
2018-Jun-15 08:00N 36°36' E 014°03'612.0
2018-Jun-15 07:30N 36°38' E 013°56'611.9
2018-Jun-15 07:00N 36°40' E 013°49'612.1
2018-Jun-15 06:30N 36°42' E 013°42'612.1
2018-Jun-15 06:00N 36°44' E 013°35'  
2018-Jun-13 01:01N 36°43' E 000°13'013.0
2018-Jun-13 01:00N 36°43' E 000°13'3312.7
2018-Jun-12 22:24N 36°37' W 000°28'1012.3
2018-Jun-12 21:35N 36°35' W 000°40'112.6
2018-Jun-12 21:30N 36°35' W 000°41'21513.2
2018-Jun-12 05:15N 36°02' W 005°05'415.2
2018-Jun-12 04:59N 36°02' W 005°10'715.1
2018-Jun-12 04:30N 36°03' W 005°19'611.5
2018-Jun-12 04:00N 36°06' W 005°25'0 0.3
2018-Jun-12 03:27N 36°06' W 005°25'0 0.0
2018-Jun-12 02:54N 36°06' W 005°25'0 0.1
2018-Jun-12 02:27N 36°06' W 005°25'0 0.1
2018-Jun-12 02:00N 36°06' W 005°25'0 0.0
2018-Jun-12 01:26N 36°06' W 005°25'0 0.1
2018-Jun-12 00:59N 36°06' W 005°25'0 0.1
2018-Jun-12 00:26N 36°06' W 005°25'0 0.0
2018-Jun-11 23:59N 36°06' W 005°25'0 0.1
2018-Jun-11 23:25N 36°06' W 005°25'0 0.0
2018-Jun-11 22:58N 36°06' W 005°25'0 0.3
2018-Jun-11 22:28N 36°06' W 005°25'0 0.1
2018-Jun-11 21:58N 36°06' W 005°25'0 0.1
2018-Jun-11 21:28N 36°06' W 005°25'0 0.6
2018-Jun-11 21:00N 36°05' W 005°25'3 6.4
2018-Jun-11 20:30N 36°05' W 005°21'2 3.3
2018-Jun-11 20:00N 36°03' W 005°20'611.4
2018-Jun-11 19:30N 35°59' W 005°25'26410.8
2018-Jun-10 18:58N 38°25' W 010°01'612.4
2018-Jun-10 18:30N 38°30' W 010°03'712.3
2018-Jun-10 17:54N 38°37' W 010°05'612.3
2018-Jun-10 17:26N 38°43' W 010°06'512.6
2018-Jun-10 17:00N 38°49' W 010°07'612.6
2018-Jun-10 16:30N 38°55' W 010°06'612.3
2018-Jun-10 16:01N 39°01' W 010°06'612.5
2018-Jun-10 15:30N 39°07' W 010°06'612.8
2018-Jun-10 15:00N 39°14' W 010°07'  
2018-Jun-08 03:11N 49°48' W 003°26'511.6
2018-Jun-08 02:44N 49°51' W 003°20'311.5
2018-Jun-08 02:31N 49°52' W 003°16'611.6
2018-Jun-08 02:00N 49°55' W 003°08'611.5
2018-Jun-08 01:30N 49°58' W 003°01'611.4
2018-Jun-08 01:00N 50°00' W 002°52'3512.2
2018-Jun-07 22:10N 50°10' W 002°01'213.3
2018-Jun-07 22:00N 50°10' W 001°57'813.7
2018-Jun-07 21:26N 50°12' W 001°46'3214.2
2018-Jun-07 19:11N 50°21' W 000°57'613.9
2018-Jun-07 18:45N 50°23' W 000°48'413.5
2018-Jun-07 18:29N 50°24' W 000°43'612.8
2018-Jun-07 18:01N 50°26' W 000°34'612.5
2018-Jun-07 17:30N 50°27' W 000°24'1811.8
2018-Jun-07 16:01N 50°32' E 000°02'411.4
2018-Jun-07 15:38N 50°33' E 000°09'211.3
2018-Jun-07 15:27N 50°34' E 000°12'511.2
2018-Jun-07 15:00N 50°35' E 000°20'611.2
2018-Jun-07 14:30N 50°37' E 000°28'611.3
2018-Jun-07 14:00N 50°39' E 000°36'612.0
2018-Jun-07 13:30N 50°43' E 000°44'612.6
2018-Jun-07 13:01N 50°46' E 000°52'2213.6
2018-Jun-07 11:22N 51°00' E 001°19'514.0
2018-Jun-07 11:00N 51°04' E 001°26'713.4
2018-Jun-07 10:30N 51°08' E 001°34'612.6
2018-Jun-07 10:01N 51°12' E 001°42'612.0
2018-Jun-07 09:31N 51°16' E 001°48'611.7
2018-Jun-07 09:00N 51°21' E 001°54'611.1
2018-Jun-07 08:30N 51°25' E 001°59'611.6
2018-Jun-07 08:00N 51°23' E 002°08'611.4
2018-Jun-07 07:30N 51°21' E 002°17'610.7
2018-Jun-07 06:58N 51°22' E 002°25'510.6
2018-Jun-07 06:30N 51°23' E 002°33'610.7
2018-Jun-07 05:58N 51°23' E 002°42'4 7.7
2018-Jun-07 05:30N 51°22' E 002°48'511.0
2018-Jun-07 05:00N 51°23' E 002°56'610.8
2018-Jun-07 04:30N 51°24' E 003°05'510.7
2018-Jun-07 04:00N 51°25' E 003°14'510.7
2018-Jun-07 03:30N 51°25' E 003°22'611.0
2018-Jun-07 03:00N 51°25' E 003°31'4 8.8
2018-Jun-07 02:30N 51°25' E 003°38'511.0
2018-Jun-07 02:01N 51°22' E 003°45'3 6.6
2018-Jun-07 01:31N 51°20' E 003°49'0 0.1
2018-Jun-07 01:00N 51°20' E 003°49'1 2.5
2018-Jun-07 00:30N 51°19' E 003°50'3 5.7
2018-Jun-07 00:00N 51°16' E 003°50'3 5.7
2018-Jun-06 23:31N 51°13' E 003°48'2 4.5
2018-Jun-06 22:58N 51°11' E 003°48'0 0.0
2018-Jun-06 22:30N 51°11' E 003°48'0 0.0
2018-Jun-06 22:00N 51°11' E 003°48'0 0.0
2018-Jun-06 21:30N 51°11' E 003°48'0 0.0
2018-Jun-06 21:00N 51°11' E 003°48'0 0.0
2018-Jun-06 20:30N 51°11' E 003°48'0 0.0
2018-Jun-06 19:59N 51°11' E 003°48'0 0.0
2018-Jun-06 19:23N 51°11' E 003°48'0 0.0
2018-Jun-06 18:59N 51°11' E 003°48'0 0.0
2018-Jun-06 18:29N 51°11' E 003°48'0 0.0
2018-Jun-06 17:58N 51°11' E 003°48'0 0.0
2018-Jun-06 17:22N 51°11' E 003°48'0 0.0
2018-Jun-06 16:58N 51°11' E 003°48'0 0.0
2018-Jun-06 16:25N 51°11' E 003°48'0 0.0
2018-Jun-06 15:58N 51°11' E 003°48'0 0.0
2018-Jun-06 15:30N 51°11' E 003°48'0 0.0
2018-Jun-06 15:00N 51°11' E 003°48'0 0.0
2018-Jun-06 14:30N 51°11' E 003°48'0 0.0
2018-Jun-06 14:00N 51°11' E 003°48'0 0.0
2018-Jun-06 13:29N 51°11' E 003°48'0 0.0
2018-Jun-06 12:59N 51°11' E 003°48'0 0.0
2018-Jun-06 12:29N 51°11' E 003°48'0 0.0
2018-Jun-06 11:56N 51°11' E 003°48'0 0.0
2018-Jun-06 11:29N 51°11' E 003°48'0 0.0
2018-Jun-06 10:58N 51°11' E 003°48'0 0.0
2018-Jun-06 10:28N 51°11' E 003°48'0 0.0
2018-Jun-06 09:58N 51°11' E 003°48'0 0.0
2018-Jun-06 09:28N 51°11' E 003°48'0 0.0
2018-Jun-06 08:58N 51°11' E 003°48'0 0.1
2018-Jun-06 08:30N 51°11' E 003°48'0 0.1
2018-Jun-06 08:00N 51°11' E 003°48'0 0.0
2018-Jun-06 07:30N 51°11' E 003°48'0 0.0
2018-Jun-06 07:00N 51°11' E 003°48'0 0.0
2018-Jun-06 06:29N 51°11' E 003°48'0 0.0
2018-Jun-06 05:59N 51°11' E 003°48'0 0.0
2018-Jun-06 05:26N 51°11' E 003°48'0 0.0
2018-Jun-06 04:59N 51°11' E 003°48'0 0.0
2018-Jun-06 04:29N 51°11' E 003°48'0 0.0
2018-Jun-06 03:58N 51°11' E 003°48'0 0.0
2018-Jun-06 03:28N 51°11' E 003°48'0 0.0
2018-Jun-06 02:58N 51°11' E 003°48'0 0.0
2018-Jun-06 02:28N 51°11' E 003°48'0 0.0
2018-Jun-06 02:00N 51°11' E 003°48'0 0.0
2018-Jun-06 01:30N 51°11' E 003°48'0 0.0
2018-Jun-06 01:00N 51°11' E 003°48'0 0.0
2018-Jun-06 00:30N 51°11' E 003°48'0 0.0
2018-Jun-06 00:00N 51°11' E 003°48'0 0.0
2018-Jun-05 23:29N 51°11' E 003°48'0 0.0
2018-Jun-05 22:59N 51°11' E 003°48'0 0.0
2018-Jun-05 22:29N 51°11' E 003°48'0 0.0
2018-Jun-05 21:59N 51°11' E 003°48'0 0.0
2018-Jun-05 21:26N 51°11' E 003°48'0 0.0
2018-Jun-05 20:58N 51°11' E 003°48'0 0.0
2018-Jun-05 20:28N 51°11' E 003°48'0 0.0
2018-Jun-05 19:58N 51°11' E 003°48'0 0.0
2018-Jun-05 19:28N 51°11' E 003°48'0 0.0
2018-Jun-05 19:01N 51°11' E 003°48'0 0.0
2018-Jun-05 18:30N 51°11' E 003°48'0 0.0
2018-Jun-05 18:00N 51°11' E 003°48'0 0.0
2018-Jun-05 17:30N 51°11' E 003°48'0 0.0
2018-Jun-05 17:00N 51°11' E 003°48'0 0.0
2018-Jun-05 16:23N 51°11' E 003°48'0 0.0
2018-Jun-05 16:00N 51°11' E 003°48'0 0.0
2018-Jun-05 15:29N 51°11' E 003°48'0 0.0
2018-Jun-05 14:59N 51°11' E 003°48'0 0.0
2018-Jun-05 14:29N 51°11' E 003°48'0 0.0
2018-Jun-05 13:58N 51°11' E 003°48'0 0.0
2018-Jun-05 13:28N 51°11' E 003°48'0 0.0
2018-Jun-05 12:58N 51°11' E 003°48'0 0.0
2018-Jun-05 12:28N 51°11' E 003°48'0 0.0
2018-Jun-05 12:00N 51°11' E 003°48'  

Dump ship's entire track history